Mc Cracken, Kansas
Current Conditions -  °F | °C
As of 4:35 AM on Thursday 18 Dec 2014 (Local Time) from KHYS Reporting Station
Overcast Overcast  
Wind Chill: 18°   Ceiling: 2300
Heat Index: 25°   Visibility: 7mi
Dew Point: 18°   Wind: 6mph
Humidity: 74%   Direction: 70°ENE
Pressure: 30.12"   Gusts: NA
Location:  38.6313°N, 99.4817°W
Report Text: KHYS 181035Z AUTO 07005KT 7SM SCT006 OVC023 M04/M08 A3012 RMK AO1
Loading
Personal Weather Stations






























Interactive Weather Map New forecast layout! Learn more

10-Day Weather Forecast

Advertisements
Track Severe Weather on mobile